Stations météo

réclame
Mon MeteoGroup
Tarfala, Suède (2029): Température de l'air & dewpoint: 20.06.2019 10:00:00 - 26.06.2019 10:00:00 (CEST)Tarfala, Suède (2029): Vitesse du vent & gusts: 20.06.2019 10:00:00 - 26.06.2019 10:00:00 (CEST)Tarfala, Suède (2029): Direction du vent: 20.06.2019 10:00:00 - 26.06.2019 10:00:00 (CEST)
Date & Time tt [°C] td [°C] ff [km/h] ff [knt] fx [km/h] fx [knt] dd
26.06.2019 10:00:00 - - - - - - -
26.06.2019 09:00:00 3,2 -1,7 34 18 43 23 NNW
26.06.2019 08:00:00 3,1 -2,0 22 12 40 21 N
26.06.2019 07:00:00 3,2 -2,1 13 7 34 18 NNW
26.06.2019 06:00:00 3,2 -4,3 29 16 51 28 WNW
26.06.2019 05:00:00 2,6 -2,5 29 15 40 21 NNW
26.06.2019 04:00:00 2,9 -1,6 22 12 53 28 WNW
26.06.2019 03:00:00 3,3 -2,9 16 8 48 26 NW
26.06.2019 02:00:00 3,3 -2,2 21 12 44 24 NNW
26.06.2019 01:00:00 4,0 -1,8 28 15 50 27 NNW
26.06.2019 00:00:00 3,4 -1,2 16 9 39 21 NNW
25.06.2019 23:00:00 3,5 -0,5 16 9 34 18 NNW
25.06.2019 22:00:00 3,9 -0,7 12 6 - - WSW
25.06.2019 21:00:00 4,0 -0,4 13 7 33 18 NNW
25.06.2019 20:00:00 3,7 -0,3 14 8 50 27 W
25.06.2019 19:00:00 4,1 -1,1 19 11 37 20 W
25.06.2019 18:00:00 5,5 -1,0 18 10 36 20 NW
25.06.2019 17:00:00 5,0 -1,9 13 7 41 22 N
25.06.2019 16:00:00 5,3 -2,3 16 8 45 25 NW
25.06.2019 15:00:00 5,2 -1,5 23 12 43 23 WNW
25.06.2019 14:00:00 4,7 -2,0 21 12 42 23 W
25.06.2019 13:00:00 4,3 -1,1 20 11 38 21 W
25.06.2019 12:00:00 3,8 -1,4 16 8 33 18 NNW
25.06.2019 11:00:00 3,2 -0,6 8 4 36 19 N
25.06.2019 10:00:00 3,5 -1,3 18 10 43 23 NNW
25.06.2019 09:00:00 3,0 -0,6 19 10 41 22 NNW
25.06.2019 08:00:00 2,3 -1,3 21 12 44 24 NW
25.06.2019 07:00:00 1,8 -0,9 5 3 44 24 NE
25.06.2019 06:00:00 1,5 -0,9 13 7 44 24 W
25.06.2019 05:00:00 1,7 -1,4 21 11 37 20 NNW
25.06.2019 04:00:00 1,8 -1,1 14 8 37 20 NW
25.06.2019 03:00:00 1,7 -0,9 14 7 26 14 NNW
25.06.2019 02:00:00 1,9 -1,4 9 5 44 24 NW
25.06.2019 01:00:00 2,6 -1,8 24 13 48 26 NW
25.06.2019 00:00:00 2,3 -1,3 27 14 49 26 NW
24.06.2019 23:00:00 2,7 -1,5 12 6 27 15 NW
24.06.2019 22:00:00 2,8 -1,4 13 7 45 25 WNW
24.06.2019 21:00:00 2,9 -0,4 16 9 43 23 WNW
24.06.2019 20:00:00 3,0 -1,0 17 9 54 29 NW
24.06.2019 19:00:00 3,1 -0,4 12 7 52 28 NNW
24.06.2019 18:00:00 3,5 -0,3 19 10 46 25 W
24.06.2019 17:00:00 4,0 0,0 17 9 56 31 N
24.06.2019 16:00:00 4,0 0,3 10 6 40 21 NW
24.06.2019 15:00:00 4,3 1,2 17 9 47 25 NNW
24.06.2019 14:00:00 4,2 0,2 14 8 49 26 NNE
24.06.2019 13:00:00 5,1 -1,4 28 15 67 36 NW
24.06.2019 12:00:00 4,0 -1,0 34 19 52 28 WNW
24.06.2019 11:00:00 3,0 -0,3 16 9 43 23 W
24.06.2019 10:00:00 3,9 0,1 14 8 34 18 NNW
24.06.2019 09:00:00 4,1 0,8 19 10 35 19 NW
24.06.2019 08:00:00 3,3 0,0 14 7 32 18 NNW
24.06.2019 07:00:00 3,2 -0,4 19 10 34 19 NNW
24.06.2019 06:00:00 3,1 -1,1 20 11 41 22 NNW
24.06.2019 05:00:00 2,4 -0,9 23 12 39 21 WNW
24.06.2019 04:00:00 2,8 0,4 15 8 32 17 WNW
24.06.2019 03:00:00 2,8 0,0 13 7 27 15 N
24.06.2019 02:00:00 3,0 -0,6 9 5 18 10 WNW
24.06.2019 01:00:00 3,2 -1,0 14 7 27 15 NNW
24.06.2019 00:00:00 3,7 -1,3 8 4 28 15 NW
23.06.2019 23:00:00 3,7 -0,7 10 5 26 14 N
23.06.2019 22:00:00 4,2 -0,6 14 8 29 15 NNW
23.06.2019 21:00:00 3,9 -0,5 18 10 32 18 NNW
23.06.2019 20:00:00 4,7 -0,1 14 8 27 14 NNW
23.06.2019 19:00:00 4,9 -0,1 10 6 29 15 NNW
23.06.2019 18:00:00 4,9 -0,3 10 5 21 11 N
23.06.2019 17:00:00 5,0 -0,2 14 8 28 15 NNW
23.06.2019 16:00:00 4,7 0,3 9 5 28 15 N
23.06.2019 15:00:00 4,3 0,1 18 10 37 20 NNW
23.06.2019 14:00:00 4,3 -0,9 28 15 49 26 W
23.06.2019 13:00:00 3,8 -1,0 26 14 50 27 WNW
23.06.2019 12:00:00 4,1 -1,1 29 16 53 29 NW
23.06.2019 11:00:00 3,9 -1,3 28 15 52 28 NNW
23.06.2019 10:00:00 3,1 0,2 28 15 65 35 NW
23.06.2019 09:00:00 3,2 -0,1 41 22 69 38 NW
23.06.2019 08:00:00 3,3 -0,9 44 24 79 42 NW
23.06.2019 07:00:00 3,5 -1,3 50 27 75 40 NW
23.06.2019 06:00:00 3,1 -1,1 50 27 81 44 NW
23.06.2019 05:00:00 3,4 -1,4 55 30 86 46 NW
23.06.2019 04:00:00 3,0 -0,5 53 28 77 41 NW
23.06.2019 03:00:00 2,5 -0,4 45 25 85 46 NW
23.06.2019 02:00:00 3,1 -0,5 48 26 76 41 NW
23.06.2019 01:00:00 3,4 -0,2 46 25 80 43 NW
23.06.2019 00:00:00 3,2 -0,1 47 26 75 40 NW
22.06.2019 23:00:00 3,4 -0,1 45 25 76 41 NW
22.06.2019 22:00:00 3,5 -0,7 44 24 89 48 NW
22.06.2019 21:00:00 3,4 -0,4 46 25 85 46 NW
22.06.2019 20:00:00 3,7 -0,5 49 26 100 54 NW
22.06.2019 19:00:00 3,6 -0,2 48 26 70 38 NW
22.06.2019 18:00:00 3,5 0,0 46 25 76 41 NW
22.06.2019 17:00:00 4,0 -0,4 41 22 58 32 WNW
22.06.2019 16:00:00 3,6 0,3 36 19 57 31 WNW
22.06.2019 15:00:00 3,5 1,5 29 16 47 25 WNW
22.06.2019 14:00:00 3,8 0,5 27 14 37 20 WNW
22.06.2019 13:00:00 4,2 1,2 22 12 38 20 NW
22.06.2019 12:00:00 5,1 1,8 24 13 40 21 NW
22.06.2019 11:00:00 5,8 4,4 4 2 11 6 NW
22.06.2019 10:00:00 4,9 4,8 4 2 9 5 WNW
22.06.2019 09:00:00 4,5 4,4 8 4 15 8 S
22.06.2019 08:00:00 5,0 4,6 4 2 14 7 ESE
22.06.2019 07:00:00 5,1 5,0 5 3 12 6 S
22.06.2019 06:00:00 5,0 4,0 5 3 10 6 NNW
22.06.2019 05:00:00 4,9 4,0 3 2 13 7 NW
22.06.2019 04:00:00 5,2 4,2 6 4 9 5 N
22.06.2019 03:00:00 4,7 4,4 6 4 9 5 NNW
22.06.2019 02:00:00 5,1 4,8 8 4 11 6 N
22.06.2019 01:00:00 5,5 4,5 4 2 10 6 NNW
22.06.2019 00:00:00 6,5 3,6 0 0 18 10 N
21.06.2019 23:00:00 6,3 3,3 13 7 20 11 N
21.06.2019 22:00:00 6,1 4,1 6 3 14 8 N
21.06.2019 21:00:00 7,4 4,9 4 2 23 13 SSE
21.06.2019 20:00:00 6,9 5,1 11 6 16 9 N
21.06.2019 19:00:00 7,3 5,4 3 2 11 6 SSE
21.06.2019 18:00:00 6,8 5,4 6 4 9 5 NW
21.06.2019 17:00:00 6,6 5,4 5 3 10 5 NNW
21.06.2019 16:00:00 6,4 6,0 6 3 9 5 NNW
21.06.2019 15:00:00 5,7 5,1 4 2 9 5 NNW
21.06.2019 14:00:00 5,3 4,9 6 3 9 5 NW
21.06.2019 13:00:00 5,5 5,2 5 3 8 4 NW
21.06.2019 12:00:00 4,9 4,5 4 2 8 4 NNW
21.06.2019 11:00:00 5,6 5,0 7 4 13 7 SW
21.06.2019 10:00:00 5,2 4,9 5 3 16 8 NW
21.06.2019 09:00:00 5,1 4,8 3 2 14 8 W
21.06.2019 08:00:00 4,9 4,8 4 2 10 5 N
21.06.2019 07:00:00 4,0 3,9 6 3 8 5 NNW
21.06.2019 06:00:00 4,4 4,3 3 2 21 11 WSW
21.06.2019 05:00:00 4,5 4,4 9 5 - - SSE
21.06.2019 04:00:00 4,6 4,5 13 7 25 14 SSE
21.06.2019 03:00:00 4,5 4,4 3 1 23 13 WSW
21.06.2019 02:00:00 4,6 4,5 15 8 26 14 SSE
21.06.2019 01:00:00 4,8 4,1 21 12 30 16 SE
21.06.2019 00:00:00 4,9 4,6 14 8 29 15 SSE
20.06.2019 23:00:00 5,0 4,3 7 4 21 11 SSE
20.06.2019 22:00:00 5,2 3,5 13 7 25 14 SSE
20.06.2019 21:00:00 5,1 3,4 3 2 25 14 NNW
20.06.2019 20:00:00 6,5 3,5 11 6 24 13 SSE
20.06.2019 19:00:00 7,5 3,2 19 10 33 18 SE
20.06.2019 18:00:00 7,7 3,5 23 13 35 19 SE
20.06.2019 17:00:00 9,0 1,4 20 11 29 16 SSE
20.06.2019 16:00:00 9,4 1,6 19 10 28 15 SSE
20.06.2019 15:00:00 9,5 1,4 19 10 29 16 SSE
20.06.2019 14:00:00 9,1 1,3 15 8 26 14 SSE
20.06.2019 13:00:00 8,7 1,1 17 9 26 14 SSE
20.06.2019 12:00:00 7,8 1,0 14 8 23 12 SSE
20.06.2019 11:00:00 7,4 1,3 5 3 13 7 NW
20.06.2019 10:00:00 6,4 0,9 8 5 12 7 WNW

tt = Température de l'air
td = dewpoint
ff = Vitesse du vent
fx = gusts
dd = Direction du vent

stations d'obs. à proximité